createdAt,value
2019-05-19T00:02:18.620Z,99.90
2019-05-19T00:04:50.611Z,99.90
2019-05-19T00:07:22.738Z,99.90
2019-05-19T00:09:55.081Z,99.90
2019-05-19T00:12:26.937Z,99.90
2019-05-19T00:14:58.651Z,99.90
2019-05-19T00:17:31.302Z,99.90
2019-05-19T00:20:03.675Z,99.90
2019-05-19T00:22:35.851Z,99.90
2019-05-19T00:25:08.020Z,99.90
2019-05-19T00:27:40.367Z,99.90
2019-05-19T00:30:12.519Z,99.90
2019-05-19T00:32:44.483Z,99.90
2019-05-19T00:35:16.667Z,99.90
2019-05-19T00:37:48.485Z,99.90
2019-05-19T00:40:20.917Z,99.90
2019-05-19T00:42:53.126Z,99.90
2019-05-19T00:45:25.177Z,99.90
2019-05-19T00:47:57.491Z,99.90
2019-05-19T00:50:29.448Z,99.90
2019-05-19T00:53:01.287Z,99.90
2019-05-19T00:55:33.197Z,99.90
2019-05-19T00:58:06.254Z,99.90
2019-05-19T01:00:38.666Z,99.90
2019-05-19T01:03:10.771Z,99.90
2019-05-19T01:05:42.588Z,99.90
2019-05-19T01:08:14.682Z,99.90
2019-05-19T01:10:46.519Z,99.90
2019-05-19T01:13:18.476Z,99.90
2019-05-19T01:15:50.573Z,99.90
2019-05-19T01:18:22.863Z,99.90
2019-05-19T01:20:54.841Z,99.90
2019-05-19T01:23:27.000Z,99.90
2019-05-19T01:25:59.792Z,99.90
2019-05-19T01:28:31.655Z,99.90
2019-05-19T01:31:03.896Z,99.90
2019-05-19T01:33:36.387Z,99.90
2019-05-19T01:36:08.928Z,99.90
2019-05-19T01:38:40.756Z,99.90
2019-05-19T01:41:13.076Z,99.90
2019-05-19T01:43:45.139Z,99.90
2019-05-19T01:46:17.221Z,99.90
2019-05-19T01:48:49.043Z,99.90
2019-05-19T01:51:20.901Z,99.90
2019-05-19T01:53:52.862Z,99.90
2019-05-19T01:56:24.951Z,99.90
2019-05-19T01:58:57.434Z,99.90
2019-05-19T02:01:29.527Z,99.90
2019-05-19T02:04:01.538Z,99.90
2019-05-19T02:06:33.386Z,99.90
2019-05-19T02:09:05.899Z,99.90
2019-05-19T02:11:37.991Z,99.90
2019-05-19T02:14:10.321Z,99.90
2019-05-19T02:16:42.211Z,99.90
2019-05-19T02:19:14.062Z,99.90
2019-05-19T02:21:45.812Z,99.90
2019-05-19T02:24:17.776Z,99.90
2019-05-19T02:26:49.611Z,99.90
2019-05-19T02:29:21.595Z,99.90
2019-05-19T02:31:53.476Z,99.90
2019-05-19T02:34:25.333Z,99.90
2019-05-19T02:36:57.725Z,99.90
2019-05-19T02:39:29.890Z,99.90
2019-05-19T02:42:03.420Z,99.90
2019-05-19T02:44:36.903Z,99.90
2019-05-19T02:47:08.965Z,99.90
2019-05-19T02:49:42.758Z,99.90
2019-05-19T02:52:16.643Z,99.90
2019-05-19T02:54:49.140Z,99.90
2019-05-19T02:57:21.592Z,99.90
2019-05-19T02:59:53.711Z,99.90
2019-05-19T03:02:25.781Z,99.90
2019-05-19T03:04:57.734Z,99.90
2019-05-19T03:07:29.826Z,99.90
2019-05-19T03:10:01.877Z,99.90
2019-05-19T03:12:34.025Z,99.90
2019-05-19T03:15:06.492Z,99.90
2019-05-19T03:17:38.826Z,99.90
2019-05-19T03:20:11.046Z,99.90
2019-05-19T03:22:43.604Z,99.90
2019-05-19T03:25:15.736Z,99.90
2019-05-19T03:27:48.049Z,99.90
2019-05-19T03:30:37.649Z,99.90
2019-05-19T03:33:10.089Z,99.90
2019-05-19T03:35:42.391Z,99.90
2019-05-19T03:38:14.938Z,99.90
2019-05-19T03:40:47.086Z,99.90
2019-05-19T03:43:19.520Z,99.90
2019-05-19T03:45:51.749Z,99.90
2019-05-19T03:48:23.609Z,99.90
2019-05-19T03:50:55.532Z,99.90
2019-05-19T03:53:27.278Z,99.90
2019-05-19T03:55:59.085Z,99.90
2019-05-19T03:58:31.120Z,99.90
2019-05-19T04:01:03.063Z,99.90
2019-05-19T04:03:35.153Z,99.90
2019-05-19T04:06:07.317Z,99.90
2019-05-19T04:08:39.427Z,99.90
2019-05-19T04:11:11.482Z,99.90
2019-05-19T04:13:43.349Z,99.90
2019-05-19T04:16:15.172Z,99.90
2019-05-19T04:18:47.193Z,99.90
2019-05-19T04:21:19.083Z,99.90
2019-05-19T04:23:51.079Z,99.90
2019-05-19T04:26:22.809Z,99.90
2019-05-19T04:28:54.700Z,99.90
2019-05-19T04:31:26.775Z,99.90
2019-05-19T04:33:58.893Z,99.90
2019-05-19T04:36:31.024Z,99.90
2019-05-19T04:39:05.638Z,99.90
2019-05-19T04:41:40.259Z,99.90
2019-05-19T04:44:12.711Z,99.90
2019-05-19T04:46:46.022Z,99.90
2019-05-19T04:49:18.103Z,99.90
2019-05-19T04:52:05.474Z,99.90
2019-05-19T04:54:23.540Z,99.90
2019-05-19T04:56:55.463Z,99.90
2019-05-19T04:59:27.570Z,99.90
2019-05-19T05:01:59.740Z,99.90
2019-05-19T05:04:31.979Z,99.90
2019-05-19T05:07:04.107Z,99.90
2019-05-19T05:09:36.325Z,99.90
2019-05-19T05:12:08.727Z,99.90
2019-05-19T05:14:41.080Z,99.90
2019-05-19T05:17:12.915Z,99.90
2019-05-19T05:19:44.737Z,99.90
2019-05-19T05:22:21.985Z,99.90
2019-05-19T05:24:51.214Z,99.90
2019-05-19T05:27:23.308Z,99.90
2019-05-19T05:29:55.359Z,99.90
2019-05-19T05:32:27.626Z,99.90
2019-05-19T05:34:59.792Z,99.90
2019-05-19T05:37:31.825Z,99.90
2019-05-19T05:40:04.340Z,99.90
2019-05-19T05:42:36.387Z,99.90
2019-05-19T05:45:08.966Z,99.90
2019-05-19T05:47:40.893Z,99.90
2019-05-19T05:50:13.039Z,99.90
2019-05-19T05:52:45.384Z,99.90
2019-05-19T05:55:17.457Z,99.90
2019-05-19T05:57:49.271Z,99.90
2019-05-19T06:00:21.281Z,99.90
2019-05-19T06:02:53.088Z,99.90
2019-05-19T06:05:25.003Z,99.90
2019-05-19T06:07:57.052Z,99.90
2019-05-19T06:10:29.221Z,99.90
2019-05-19T06:15:33.321Z,99.90
2019-05-19T06:18:05.230Z,99.90
2019-05-19T06:20:37.034Z,99.90
2019-05-19T06:23:08.885Z,99.90
2019-05-19T06:25:40.757Z,99.90
2019-05-19T06:28:12.879Z,99.90
2019-05-19T06:30:44.622Z,99.90
2019-05-19T06:33:16.324Z,99.90
2019-05-19T06:35:48.198Z,99.90
2019-05-19T06:38:20.256Z,99.90
2019-05-19T06:40:52.539Z,99.90
2019-05-19T06:43:24.787Z,99.90
2019-05-19T06:45:56.731Z,99.90
2019-05-19T06:48:28.571Z,99.90
2019-05-19T06:51:00.334Z,99.90
2019-05-19T06:53:32.364Z,99.90
2019-05-19T06:56:05.398Z,99.90
2019-05-19T06:58:37.324Z,99.90
2019-05-19T07:01:09.159Z,99.90
2019-05-19T07:03:41.015Z,99.90
2019-05-19T07:06:12.981Z,99.90
2019-05-19T07:08:44.819Z,99.90
2019-05-19T07:11:16.988Z,99.90
2019-05-19T07:13:49.060Z,99.90
2019-05-19T07:18:52.962Z,99.90
2019-05-19T07:21:24.695Z,99.90
2019-05-19T07:23:57.009Z,99.90
2019-05-19T07:26:29.085Z,99.90
2019-05-19T07:29:01.036Z,99.90
2019-05-19T07:31:33.010Z,99.90
2019-05-19T07:34:04.823Z,99.90
2019-05-19T07:36:37.115Z,99.90
2019-05-19T07:39:08.939Z,99.90
2019-05-19T07:41:41.031Z,99.90
2019-05-19T07:44:12.872Z,99.90
2019-05-19T07:46:45.149Z,99.90
2019-05-19T07:49:16.963Z,99.90
2019-05-19T07:51:48.856Z,99.80
2019-05-19T07:54:20.801Z,99.50
2019-05-19T07:59:24.995Z,98.50
2019-05-19T08:01:57.156Z,98.70
2019-05-19T08:07:01.955Z,98.30
2019-05-19T08:09:33.738Z,98.20
2019-05-19T08:12:05.725Z,97.80
2019-05-19T08:19:42.347Z,96.40
2019-05-19T08:27:18.942Z,95.30
2019-05-19T08:29:50.834Z,95.00
2019-05-19T08:32:22.650Z,94.80
2019-05-19T08:34:54.546Z,94.20
2019-05-19T08:37:27.406Z,94.00
2019-05-19T08:39:59.488Z,94.00
2019-05-19T08:42:31.317Z,96.70
2019-05-19T08:45:04.156Z,93.70
2019-05-19T08:47:36.235Z,93.70
2019-05-19T08:50:08.255Z,93.90
2019-05-19T08:52:40.679Z,94.10
2019-05-19T08:55:12.618Z,94.20
2019-05-19T08:57:44.544Z,94.30
2019-05-19T09:00:16.475Z,94.60
2019-05-19T09:02:48.419Z,95.00
2019-05-19T09:05:20.484Z,95.10
2019-05-19T09:07:52.664Z,94.60
2019-05-19T09:10:24.700Z,94.30
2019-05-19T09:12:58.283Z,93.70
2019-05-19T09:18:02.723Z,93.20
2019-05-19T09:20:35.041Z,93.70
2019-05-19T09:23:07.028Z,93.40
2019-05-19T09:25:39.031Z,93.40
2019-05-19T09:28:11.390Z,93.50
2019-05-19T09:30:43.234Z,93.70
2019-05-19T09:33:15.048Z,93.00
2019-05-19T09:35:46.875Z,92.60
2019-05-19T09:38:18.767Z,92.80
2019-05-19T09:40:50.668Z,92.90
2019-05-19T09:43:23.028Z,93.10
2019-05-19T09:45:55.098Z,92.80
2019-05-19T09:48:27.217Z,92.40
2019-05-19T09:50:59.224Z,92.70
2019-05-19T09:53:31.633Z,92.30
2019-05-19T09:56:03.815Z,92.00
2019-05-19T09:58:36.118Z,92.50
2019-05-19T10:01:08.511Z,92.20
2019-05-19T10:03:40.829Z,92.40
2019-05-19T10:06:12.787Z,92.20
2019-05-19T10:08:45.511Z,92.30
2019-05-19T10:11:45.588Z,92.30
2019-05-19T10:14:17.413Z,92.30
2019-05-19T10:16:49.683Z,91.80
2019-05-19T10:19:22.120Z,91.20
2019-05-19T10:21:54.709Z,92.40
2019-05-19T10:26:59.236Z,90.80
2019-05-19T10:29:31.310Z,91.10
2019-05-19T10:32:03.208Z,91.00
2019-05-19T10:34:35.447Z,90.80
2019-05-19T10:39:39.833Z,90.60
2019-05-19T10:42:11.886Z,90.70
2019-05-19T10:44:44.033Z,90.20
2019-05-19T10:47:17.822Z,90.30
2019-05-19T10:49:49.830Z,90.30
2019-05-19T10:52:21.880Z,90.10
2019-05-19T10:54:54.014Z,90.10
2019-05-19T10:57:25.926Z,90.10
2019-05-19T10:59:57.749Z,89.40
2019-05-19T11:02:29.892Z,89.60
2019-05-19T11:05:01.960Z,88.90
2019-05-19T11:07:34.067Z,88.50
2019-05-19T11:10:07.321Z,88.50
2019-05-19T11:12:39.475Z,88.40
2019-05-19T11:15:12.202Z,88.00
2019-05-19T11:17:45.584Z,87.70
2019-05-19T11:20:17.569Z,88.20
2019-05-19T11:22:49.980Z,88.70
2019-05-19T11:25:33.483Z,86.90
2019-05-19T11:27:55.842Z,87.70
2019-05-19T11:30:28.064Z,85.80
2019-05-19T11:33:00.273Z,86.90
2019-05-19T11:35:32.578Z,85.50
2019-05-19T11:38:04.570Z,85.50
2019-05-19T11:40:36.611Z,85.90
2019-05-19T11:43:08.680Z,85.50
2019-05-19T11:45:40.913Z,86.30
2019-05-19T11:48:12.884Z,86.20
2019-05-19T11:50:44.994Z,85.80
2019-05-19T11:53:17.067Z,85.10
2019-05-19T11:55:48.957Z,84.40
2019-05-19T11:58:21.030Z,84.60
2019-05-19T12:00:52.888Z,84.10
2019-05-19T12:03:24.939Z,83.10
2019-05-19T12:05:56.840Z,83.20
2019-05-19T12:08:28.678Z,82.50
2019-05-19T12:11:00.572Z,82.70
2019-05-19T12:13:34.929Z,82.90
2019-05-19T12:16:06.322Z,82.40
2019-05-19T12:18:38.158Z,82.60
2019-05-19T12:21:10.492Z,82.60
2019-05-19T12:23:42.591Z,81.70
2019-05-19T12:26:23.133Z,81.90
2019-05-19T12:28:48.964Z,83.60
2019-05-19T12:31:20.891Z,84.90
2019-05-19T12:33:52.813Z,86.60
2019-05-19T12:36:25.388Z,86.90
2019-05-19T12:38:57.798Z,86.90
2019-05-19T12:41:30.023Z,87.00
2019-05-19T12:44:02.167Z,90.00
2019-05-19T12:46:34.569Z,90.60
2019-05-19T12:49:06.828Z,90.80
2019-05-19T12:51:38.902Z,90.60
2019-05-19T12:54:10.784Z,89.80
2019-05-19T12:56:42.767Z,87.90
2019-05-19T12:59:14.764Z,88.10
2019-05-19T13:01:46.702Z,90.00
2019-05-19T13:04:18.848Z,90.60
2019-05-19T13:06:50.788Z,91.20
2019-05-19T13:09:22.882Z,91.20
2019-05-19T13:11:54.711Z,90.80
2019-05-19T13:14:26.586Z,90.50
2019-05-19T13:16:58.564Z,90.00
2019-05-19T13:19:30.666Z,89.00
2019-05-19T13:22:02.986Z,87.10
2019-05-19T13:24:34.956Z,86.80
2019-05-19T13:27:07.014Z,89.10
2019-05-19T13:29:38.858Z,90.10
2019-05-19T13:32:11.032Z,90.60
2019-05-19T13:34:42.883Z,90.50
2019-05-19T13:37:14.779Z,90.50
2019-05-19T13:39:46.513Z,90.40
2019-05-19T13:42:18.401Z,91.10
2019-05-19T13:44:50.468Z,91.60
2019-05-19T13:47:22.531Z,91.90
2019-05-19T13:49:54.509Z,92.30
2019-05-19T13:52:26.298Z,93.00
2019-05-19T13:54:58.620Z,93.40
2019-05-19T13:57:30.809Z,93.70
2019-05-19T14:00:03.008Z,94.20
2019-05-19T14:02:35.479Z,94.20
2019-05-19T14:05:07.303Z,94.00
2019-05-19T14:07:39.438Z,93.60
2019-05-19T14:10:11.489Z,93.40
2019-05-19T14:12:43.691Z,93.30
2019-05-19T14:15:15.929Z,93.90
2019-05-19T14:17:48.242Z,94.50
2019-05-19T14:20:20.061Z,94.70
2019-05-19T14:22:52.724Z,94.60
2019-05-19T14:25:24.554Z,94.50
2019-05-19T14:27:56.551Z,94.30
2019-05-19T14:30:28.768Z,94.60
2019-05-19T14:33:01.142Z,94.50
2019-05-19T14:35:33.186Z,94.30
2019-05-19T14:38:05.530Z,94.20
2019-05-19T14:40:37.682Z,93.70
2019-05-19T14:43:09.562Z,93.50
2019-05-19T14:45:41.402Z,93.90
2019-05-19T14:48:13.389Z,94.50
2019-05-19T14:50:45.246Z,94.40
2019-05-19T14:53:17.012Z,94.20
2019-05-19T14:55:48.837Z,93.90
2019-05-19T14:58:20.642Z,93.50
2019-05-19T15:00:52.935Z,93.10
2019-05-19T15:03:25.012Z,93.30
2019-05-19T15:05:57.130Z,93.30
2019-05-19T15:08:29.399Z,93.90
2019-05-19T15:11:01.451Z,94.20
2019-05-19T15:13:33.737Z,94.60
2019-05-19T15:16:05.563Z,94.90
2019-05-19T15:18:37.631Z,95.20
2019-05-19T15:21:09.492Z,95.60
2019-05-19T15:23:41.789Z,96.20
2019-05-19T15:26:13.626Z,97.30
2019-05-19T15:28:46.114Z,98.90
2019-05-19T15:31:17.956Z,99.40
2019-05-19T15:33:49.998Z,99.50
2019-05-19T15:36:22.216Z,99.60
2019-05-19T15:38:54.282Z,99.90
2019-05-19T15:41:26.390Z,99.90
2019-05-19T15:43:58.590Z,99.90
2019-05-19T15:46:30.740Z,99.50
2019-05-19T15:49:02.579Z,99.80
2019-05-19T15:51:37.787Z,99.80
2019-05-19T15:54:08.576Z,99.90
2019-05-19T15:56:40.436Z,99.90
2019-05-19T15:59:12.392Z,99.90
2019-05-19T16:01:44.363Z,99.90
2019-05-19T16:04:16.171Z,99.80
2019-05-19T16:06:48.779Z,99.50
2019-05-19T16:09:20.741Z,99.00
2019-05-19T16:11:52.708Z,98.40
2019-05-19T16:14:24.435Z,98.40
2019-05-19T16:16:56.783Z,98.50
2019-05-19T16:19:28.983Z,98.40
2019-05-19T16:22:01.307Z,98.50
2019-05-19T16:24:33.411Z,98.80
2019-05-19T16:27:05.351Z,99.00
2019-05-19T16:29:37.556Z,99.10
2019-05-19T16:32:09.412Z,99.30
2019-05-19T16:34:41.754Z,99.40
2019-05-19T16:37:13.627Z,99.50
2019-05-19T16:39:47.232Z,99.70
2019-05-19T16:42:19.076Z,99.70
2019-05-19T16:44:51.165Z,99.80
2019-05-19T16:47:23.162Z,99.70
2019-05-19T16:49:55.249Z,99.30
2019-05-19T16:52:27.327Z,99.20
2019-05-19T16:55:21.784Z,99.20
2019-05-19T16:57:54.258Z,99.80
2019-05-19T17:00:27.697Z,99.90
2019-05-19T17:03:00.177Z,99.90
2019-05-19T17:05:32.623Z,99.90
2019-05-19T17:08:04.629Z,99.90
2019-05-19T17:10:36.705Z,99.90
2019-05-19T17:13:08.971Z,99.90
2019-05-19T17:15:41.262Z,99.90
2019-05-19T17:18:13.323Z,99.90
2019-05-19T17:20:45.160Z,99.90
2019-05-19T17:23:17.169Z,99.90
2019-05-19T17:25:49.013Z,99.90
2019-05-19T17:28:20.880Z,99.90
2019-05-19T17:30:52.851Z,99.90
2019-05-19T17:33:24.635Z,99.90
2019-05-19T17:35:56.731Z,99.90
2019-05-19T17:38:29.048Z,99.90
2019-05-19T17:41:01.374Z,99.90
2019-05-19T17:43:33.265Z,99.90
2019-05-19T17:46:05.790Z,99.90
2019-05-19T17:48:38.178Z,99.90
2019-05-19T17:51:10.008Z,99.90
2019-05-19T17:53:42.659Z,99.90
2019-05-19T17:56:15.528Z,99.90
2019-05-19T17:58:47.711Z,99.90
2019-05-19T18:01:20.279Z,99.90
2019-05-19T18:03:52.131Z,99.90
2019-05-19T18:06:24.207Z,99.90
2019-05-19T18:08:56.203Z,99.90
2019-05-19T18:11:28.440Z,99.90
2019-05-19T18:14:00.289Z,99.90
2019-05-19T18:16:32.143Z,99.90
2019-05-19T18:19:04.335Z,99.90
2019-05-19T18:21:36.707Z,99.90
2019-05-19T18:24:08.605Z,99.90
2019-05-19T18:29:12.589Z,99.90
2019-05-19T18:31:44.692Z,99.90
2019-05-19T18:34:16.807Z,99.90
2019-05-19T18:36:48.626Z,99.90
2019-05-19T18:39:20.758Z,99.90
2019-05-19T18:41:53.213Z,99.90
2019-05-19T18:44:25.164Z,99.90
2019-05-19T18:46:57.298Z,99.90
2019-05-19T18:49:29.537Z,99.90
2019-05-19T18:52:01.952Z,99.90
2019-05-19T18:54:33.967Z,99.90
2019-05-19T18:57:05.718Z,99.90
2019-05-19T18:59:46.818Z,99.90
2019-05-19T19:02:12.447Z,99.90
2019-05-19T19:04:44.461Z,99.90
2019-05-19T19:07:16.300Z,99.90
2019-05-19T19:09:48.396Z,99.90
2019-05-19T19:12:20.217Z,99.90
2019-05-19T19:14:52.219Z,99.90
2019-05-19T19:17:24.624Z,99.90
2019-05-19T19:19:56.660Z,99.90
2019-05-19T19:22:28.688Z,99.90
2019-05-19T19:25:00.947Z,99.90
2019-05-19T19:27:32.981Z,99.90
2019-05-19T19:30:05.637Z,99.90
2019-05-19T19:32:38.184Z,99.90
2019-05-19T19:35:10.278Z,99.90
2019-05-19T19:37:42.671Z,99.90
2019-05-19T19:40:20.678Z,99.90
2019-05-19T19:42:53.488Z,99.90
2019-05-19T19:45:25.802Z,99.90
2019-05-19T19:47:57.599Z,99.90
2019-05-19T19:50:31.634Z,99.90
2019-05-19T19:53:05.354Z,99.90
2019-05-19T19:55:37.883Z,99.90
2019-05-19T19:58:11.104Z,99.90
2019-05-19T20:00:44.650Z,99.90
2019-05-19T20:03:16.575Z,99.90
2019-05-19T20:05:48.646Z,99.90
2019-05-19T20:08:22.935Z,99.90
2019-05-19T20:10:55.133Z,99.90
2019-05-19T20:13:27.232Z,99.90
2019-05-19T20:15:59.128Z,99.90
2019-05-19T20:18:31.034Z,99.90
2019-05-19T20:21:03.156Z,99.90
2019-05-19T20:23:35.268Z,99.90
2019-05-19T20:26:07.356Z,99.90
2019-05-19T20:28:39.122Z,99.90
2019-05-19T20:31:11.097Z,99.90
2019-05-19T20:33:48.581Z,99.90
2019-05-19T20:36:28.121Z,99.90
2019-05-19T20:39:00.338Z,99.90
2019-05-19T20:41:33.730Z,99.90
2019-05-19T20:44:06.894Z,99.90
2019-05-19T20:46:38.962Z,99.90
2019-05-19T20:49:14.136Z,99.90
2019-05-19T20:51:46.605Z,99.90
2019-05-19T20:54:18.423Z,99.90
2019-05-19T20:56:50.734Z,99.90
2019-05-19T20:59:23.040Z,99.90
2019-05-19T21:01:55.298Z,99.90
2019-05-19T21:04:27.489Z,99.90
2019-05-19T21:09:31.368Z,99.90
2019-05-19T21:12:03.429Z,99.90
2019-05-19T21:14:35.231Z,99.90
2019-05-19T21:17:07.355Z,99.90
2019-05-19T21:19:39.418Z,99.90
2019-05-19T21:22:11.455Z,99.90
2019-05-19T21:24:43.762Z,99.90
2019-05-19T21:27:15.889Z,99.90
2019-05-19T21:29:47.916Z,99.90
2019-05-19T21:32:19.973Z,99.90
2019-05-19T21:34:52.133Z,99.90
2019-05-19T21:37:24.242Z,99.90
2019-05-19T21:39:56.670Z,99.90
2019-05-19T21:42:28.661Z,99.90
2019-05-19T21:45:04.991Z,99.90
2019-05-19T21:47:37.306Z,99.90
2019-05-19T21:50:09.543Z,99.90
2019-05-19T21:52:41.530Z,99.90
2019-05-19T21:55:13.578Z,99.90
2019-05-19T21:57:45.327Z,99.90
2019-05-19T22:00:17.525Z,99.90
2019-05-19T22:02:49.956Z,99.90
2019-05-19T22:05:21.979Z,99.90
2019-05-19T22:08:02.513Z,99.90
2019-05-19T22:10:34.691Z,99.90
2019-05-19T22:13:06.718Z,99.90
2019-05-19T22:15:39.067Z,99.90
2019-05-19T22:18:11.185Z,99.90
2019-05-19T22:20:43.580Z,99.90
2019-05-19T22:23:15.407Z,99.90
2019-05-19T22:25:47.267Z,99.90
2019-05-19T22:28:19.409Z,99.90
2019-05-19T22:30:51.158Z,99.90
2019-05-19T22:33:23.327Z,99.90
2019-05-19T22:35:55.642Z,99.90
2019-05-19T22:38:27.913Z,99.90
2019-05-19T22:40:59.746Z,99.90
2019-05-19T22:43:31.583Z,99.90
2019-05-19T22:46:03.342Z,99.90
2019-05-19T22:48:35.187Z,99.90
2019-05-19T22:51:07.291Z,99.90
2019-05-19T22:53:39.352Z,99.90
2019-05-19T22:56:11.449Z,99.90
2019-05-19T22:58:43.609Z,99.90
2019-05-19T23:01:15.959Z,99.90
2019-05-19T23:03:48.281Z,99.90
2019-05-19T23:06:20.677Z,99.90
2019-05-19T23:08:52.529Z,99.90
2019-05-19T23:11:24.609Z,99.90
2019-05-19T23:13:56.728Z,99.90
2019-05-19T23:16:28.777Z,99.90
2019-05-19T23:19:00.619Z,99.90
2019-05-19T23:21:34.485Z,99.90
2019-05-19T23:24:06.882Z,99.90
2019-05-19T23:26:38.970Z,99.90
2019-05-19T23:29:11.272Z,99.90
2019-05-19T23:31:43.077Z,99.90
2019-05-19T23:34:14.858Z,99.90
2019-05-19T23:36:46.667Z,99.90
2019-05-19T23:39:18.511Z,99.90
2019-05-19T23:41:50.333Z,99.90
2019-05-19T23:44:22.300Z,99.90
2019-05-19T23:46:54.319Z,99.90
2019-05-19T23:49:26.377Z,99.90
2019-05-19T23:51:58.428Z,99.90
2019-05-19T23:54:30.478Z,99.90
2019-05-19T23:57:02.643Z,99.90
2019-05-19T23:59:34.460Z,99.90
